createdAt,value
2022-10-31T00:00:12.667Z,12.22
2022-10-31T00:02:40.552Z,12.14
2022-10-31T00:05:09.046Z,12.21
2022-10-31T00:07:36.888Z,12.27
2022-10-31T00:10:05.175Z,12.30
2022-10-31T00:12:32.953Z,12.33
2022-10-31T00:15:02.086Z,12.31
2022-10-31T00:17:29.784Z,12.12
2022-10-31T00:19:57.818Z,12.06
2022-10-31T00:22:25.549Z,12.09
2022-10-31T00:24:53.295Z,12.07
2022-10-31T00:27:21.007Z,11.99
2022-10-31T00:29:48.751Z,12.01
2022-10-31T00:32:17.793Z,11.98
2022-10-31T00:34:45.512Z,11.93
2022-10-31T00:37:13.309Z,11.85
2022-10-31T00:39:41.041Z,11.68
2022-10-31T00:42:08.759Z,11.62
2022-10-31T00:44:36.456Z,11.62
2022-10-31T00:47:04.247Z,11.59
2022-10-31T00:49:33.341Z,11.56
2022-10-31T00:52:01.056Z,11.48
2022-10-31T00:54:28.807Z,11.39
2022-10-31T00:56:56.552Z,11.36
2022-10-31T00:59:24.648Z,11.36
2022-10-31T01:01:52.584Z,11.45
2022-10-31T01:04:20.438Z,11.52
2022-10-31T01:06:49.584Z,11.53
2022-10-31T01:09:17.962Z,11.54
2022-10-31T01:11:45.771Z,11.54
2022-10-31T01:14:13.492Z,11.55
2022-10-31T01:16:41.222Z,11.63
2022-10-31T01:19:08.993Z,11.64
2022-10-31T01:21:36.776Z,11.60
2022-10-31T01:24:06.845Z,11.55
2022-10-31T01:26:38.388Z,11.43
2022-10-31T01:29:08.244Z,11.37
2022-10-31T01:31:40.011Z,11.36
2022-10-31T01:34:08.554Z,11.32
2022-10-31T01:36:39.080Z,11.30
2022-10-31T01:39:10.952Z,11.30
2022-10-31T01:41:40.829Z,11.35
2022-10-31T01:44:42.678Z,11.31
2022-10-31T01:47:17.151Z,11.26
2022-10-31T01:49:51.007Z,11.22
2022-10-31T01:52:23.879Z,11.14
2022-10-31T01:54:58.294Z,11.00
2022-10-31T01:57:27.253Z,10.98
2022-10-31T02:00:01.480Z,10.87
2022-10-31T02:02:31.198Z,10.76
2022-10-31T02:05:01.835Z,10.73
2022-10-31T02:07:35.743Z,10.63
2022-10-31T02:10:06.042Z,10.59
2022-10-31T02:12:37.019Z,10.57
2022-10-31T02:15:06.534Z,10.59
2022-10-31T02:17:35.201Z,10.61
2022-10-31T02:20:13.650Z,10.55
2022-10-31T02:23:04.085Z,10.49
2022-10-31T02:25:58.302Z,10.41
2022-10-31T02:28:42.727Z,10.37
2022-10-31T02:31:28.433Z,10.37
2022-10-31T02:34:01.751Z,10.41
2022-10-31T02:36:40.968Z,10.38
2022-10-31T02:39:18.560Z,10.32
2022-10-31T02:41:52.460Z,10.24
2022-10-31T02:44:29.157Z,10.23
2022-10-31T02:47:01.988Z,10.25
2022-10-31T02:49:36.047Z,10.20
2022-10-31T02:52:03.838Z,10.20
2022-10-31T02:54:33.657Z,10.24
2022-10-31T02:57:06.461Z,10.20
2022-10-31T02:59:36.833Z,10.19
2022-10-31T03:02:20.400Z,10.23
2022-10-31T03:05:04.534Z,10.22
2022-10-31T03:07:41.779Z,10.20
2022-10-31T03:10:19.045Z,10.20
2022-10-31T03:12:52.446Z,10.20
2022-10-31T03:15:25.105Z,10.19
2022-10-31T03:18:00.562Z,10.23
2022-10-31T03:20:35.601Z,10.26
2022-10-31T03:23:05.704Z,10.19
2022-10-31T03:25:36.196Z,10.17
2022-10-31T03:28:06.134Z,10.18
2022-10-31T03:30:37.776Z,10.20
2022-10-31T03:33:12.116Z,10.17
2022-10-31T03:35:44.876Z,10.05
2022-10-31T03:38:14.476Z,10.01
2022-10-31T03:40:45.544Z,9.99
2022-10-31T03:43:15.920Z,9.98
2022-10-31T03:45:47.251Z,9.89
2022-10-31T03:48:18.165Z,9.80
2022-10-31T03:50:52.940Z,9.76
2022-10-31T03:53:27.074Z,9.70
2022-10-31T03:56:00.970Z,9.73
2022-10-31T03:58:34.277Z,9.70
2022-10-31T04:01:04.241Z,9.67
2022-10-31T04:03:36.716Z,9.57
2022-10-31T04:06:08.200Z,9.48
2022-10-31T04:08:43.196Z,9.42
2022-10-31T04:11:18.448Z,9.38
2022-10-31T04:13:50.747Z,9.33
2022-10-31T04:16:23.879Z,9.34
2022-10-31T04:18:53.613Z,9.37
2022-10-31T04:21:21.462Z,9.42
2022-10-31T04:23:49.838Z,9.46
2022-10-31T04:26:25.146Z,9.48
2022-10-31T04:28:53.277Z,9.50
2022-10-31T04:31:21.267Z,9.46
2022-10-31T04:33:50.719Z,9.35
2022-10-31T04:36:20.491Z,9.30
2022-10-31T04:38:48.843Z,9.24
2022-10-31T04:41:31.318Z,9.17
2022-10-31T04:44:10.511Z,9.10
2022-10-31T04:46:38.559Z,9.03
2022-10-31T04:49:06.388Z,8.98
2022-10-31T04:51:35.538Z,8.97
2022-10-31T04:54:03.539Z,8.93
2022-10-31T04:56:34.036Z,8.87
2022-10-31T04:59:11.671Z,8.79
2022-10-31T05:01:59.777Z,8.78
2022-10-31T05:04:50.488Z,8.80
2022-10-31T05:07:20.534Z,8.81
2022-10-31T05:09:48.285Z,8.86
2022-10-31T05:12:16.063Z,8.88
2022-10-31T05:15:02.159Z,8.96
2022-10-31T05:17:48.555Z,8.93
2022-10-31T05:20:31.856Z,8.92
2022-10-31T05:23:06.900Z,8.91
2022-10-31T05:25:34.706Z,8.96
2022-10-31T05:28:05.420Z,8.96
2022-10-31T05:30:35.355Z,8.96
2022-10-31T05:33:04.863Z,9.01
2022-10-31T05:35:52.538Z,8.98
2022-10-31T05:38:27.251Z,8.93
2022-10-31T05:41:00.926Z,8.93
2022-10-31T05:43:30.350Z,8.95
2022-10-31T05:45:58.416Z,8.91
2022-10-31T05:48:44.694Z,8.88
2022-10-31T05:51:30.837Z,8.92
2022-10-31T05:54:00.030Z,8.93
2022-10-31T05:56:28.542Z,8.88
2022-10-31T05:58:56.391Z,8.83
2022-10-31T06:01:24.192Z,8.83
2022-10-31T06:03:51.991Z,8.83
2022-10-31T06:06:21.434Z,8.78
2022-10-31T06:08:49.185Z,8.75
2022-10-31T06:11:22.489Z,8.76
2022-10-31T06:14:10.504Z,8.75
2022-10-31T06:17:04.233Z,8.71
2022-10-31T06:19:44.266Z,8.56
2022-10-31T06:22:16.414Z,8.49
2022-10-31T06:24:44.748Z,8.52
2022-10-31T06:27:29.395Z,8.51
2022-10-31T06:29:58.608Z,8.44
2022-10-31T06:32:33.450Z,8.51
2022-10-31T06:35:01.240Z,8.59
2022-10-31T06:37:29.003Z,8.68
2022-10-31T06:40:03.730Z,8.75
2022-10-31T06:42:38.192Z,8.79
2022-10-31T06:45:06.440Z,8.83
2022-10-31T06:48:15.544Z,8.86
2022-10-31T06:50:59.872Z,8.88
2022-10-31T06:53:28.196Z,8.91
2022-10-31T06:55:57.355Z,8.93
2022-10-31T06:58:26.771Z,8.98
2022-10-31T07:01:01.231Z,9.02
2022-10-31T07:03:29.049Z,9.05
2022-10-31T07:05:57.523Z,9.03
2022-10-31T07:08:25.812Z,9.06
2022-10-31T07:10:57.256Z,9.14
2022-10-31T07:13:28.823Z,9.26
2022-10-31T07:16:08.588Z,9.40
2022-10-31T07:18:37.481Z,9.46
2022-10-31T07:21:05.953Z,9.50
2022-10-31T07:23:33.829Z,9.47
2022-10-31T07:26:20.119Z,9.42
2022-10-31T07:28:50.620Z,9.41
2022-10-31T07:31:22.208Z,9.45
2022-10-31T07:33:52.272Z,9.57
2022-10-31T07:36:25.643Z,9.73
2022-10-31T07:38:55.652Z,9.84
2022-10-31T07:41:23.623Z,9.77
2022-10-31T07:46:44.417Z,10.06
2022-10-31T07:49:30.468Z,10.21
2022-10-31T07:52:16.926Z,10.34
2022-10-31T07:55:19.776Z,10.45
2022-10-31T07:57:57.761Z,10.59
2022-10-31T08:00:27.891Z,10.87
2022-10-31T08:03:00.227Z,11.02
2022-10-31T08:06:03.887Z,10.91
2022-10-31T08:08:52.122Z,10.86
2022-10-31T08:11:20.434Z,10.98
2022-10-31T08:13:48.968Z,11.22
2022-10-31T08:16:18.480Z,11.82
2022-10-31T08:18:56.346Z,11.94
2022-10-31T08:21:24.695Z,11.97
2022-10-31T08:23:52.484Z,12.11
2022-10-31T08:26:23.043Z,12.33
2022-10-31T08:28:53.523Z,12.71
2022-10-31T08:31:23.847Z,12.99
2022-10-31T08:33:51.576Z,13.09
2022-10-31T08:36:38.000Z,13.16
2022-10-31T08:39:13.848Z,13.22
2022-10-31T08:41:41.618Z,13.13
2022-10-31T08:44:13.173Z,13.07
2022-10-31T08:46:42.677Z,13.00
2022-10-31T08:49:10.479Z,12.81
2022-10-31T08:51:38.604Z,12.65
2022-10-31T08:54:06.604Z,12.70
2022-10-31T08:56:34.355Z,13.03
2022-10-31T08:59:04.546Z,13.38
2022-10-31T09:01:54.077Z,13.60
2022-10-31T09:04:21.981Z,13.60
2022-10-31T09:07:19.651Z,13.59
2022-10-31T09:09:37.954Z,13.70
2022-10-31T09:12:06.162Z,13.94
2022-10-31T09:14:53.653Z,14.30
2022-10-31T09:17:30.595Z,14.67
2022-10-31T09:20:21.413Z,15.05
2022-10-31T09:22:49.366Z,15.52
2022-10-31T09:25:17.328Z,15.83
2022-10-31T09:27:51.258Z,15.86
2022-10-31T09:30:19.600Z,15.89
2022-10-31T09:32:48.658Z,15.87
2022-10-31T09:35:18.270Z,15.88
2022-10-31T09:37:49.439Z,15.78
2022-10-31T09:40:17.313Z,15.81
2022-10-31T09:42:57.871Z,15.94
2022-10-31T09:45:33.547Z,15.92
2022-10-31T09:48:19.775Z,15.97
2022-10-31T09:51:08.133Z,16.06
2022-10-31T09:54:18.246Z,16.24
2022-10-31T09:56:46.570Z,16.31
2022-10-31T09:59:23.749Z,16.35
2022-10-31T10:01:55.986Z,16.51
2022-10-31T10:04:36.861Z,16.69
2022-10-31T10:07:19.237Z,16.80
2022-10-31T10:09:47.608Z,17.01
2022-10-31T10:12:57.804Z,17.03
2022-10-31T10:15:39.348Z,16.99
2022-10-31T10:18:18.123Z,17.24
2022-10-31T10:21:01.704Z,17.36
2022-10-31T10:23:38.475Z,17.31
2022-10-31T10:26:17.928Z,17.23
2022-10-31T10:28:49.450Z,17.18
2022-10-31T10:31:20.813Z,17.04
2022-10-31T10:34:03.210Z,17.00
2022-10-31T10:36:38.865Z,16.96
2022-10-31T10:39:15.921Z,16.93
2022-10-31T10:42:02.619Z,16.88
2022-10-31T10:44:47.848Z,16.82
2022-10-31T10:47:33.251Z,16.65
2022-10-31T10:50:08.379Z,16.65
2022-10-31T10:52:50.252Z,16.75
2022-10-31T10:55:30.253Z,16.80
2022-10-31T10:58:00.726Z,16.96
2022-10-31T11:00:32.928Z,16.99
2022-10-31T11:03:01.430Z,17.11
2022-10-31T11:05:36.368Z,17.21
2022-10-31T11:08:06.534Z,17.14
2022-10-31T11:10:34.868Z,17.09
2022-10-31T11:13:08.939Z,17.01
2022-10-31T11:15:51.000Z,17.15
2022-10-31T11:18:23.048Z,17.17
2022-10-31T11:20:54.373Z,17.13
2022-10-31T11:23:25.274Z,17.22
2022-10-31T11:25:56.732Z,17.41
2022-10-31T11:28:24.980Z,17.38
2022-10-31T11:30:55.588Z,17.30
2022-10-31T11:33:28.664Z,17.01
2022-10-31T11:35:58.424Z,17.10
2022-10-31T11:38:34.503Z,17.24
2022-10-31T11:41:11.772Z,17.25
2022-10-31T11:43:40.923Z,17.18
2022-10-31T11:46:14.416Z,17.35
2022-10-31T11:48:48.576Z,17.30
2022-10-31T11:51:23.071Z,17.24
2022-10-31T11:53:59.853Z,17.36
2022-10-31T11:56:40.340Z,17.30
2022-10-31T11:59:19.034Z,17.19
2022-10-31T12:01:50.087Z,17.26
2022-10-31T12:04:18.907Z,17.36
2022-10-31T12:06:48.425Z,17.35
2022-10-31T12:09:23.209Z,17.33
2022-10-31T12:12:12.512Z,17.20
2022-10-31T12:14:50.843Z,17.18
2022-10-31T12:17:25.429Z,17.15
2022-10-31T12:20:02.683Z,17.06
2022-10-31T12:22:41.951Z,17.05
2022-10-31T12:25:30.430Z,17.14
2022-10-31T12:28:12.277Z,17.24
2022-10-31T12:30:52.807Z,17.24
2022-10-31T12:33:36.181Z,17.27
2022-10-31T12:36:31.422Z,17.43
2022-10-31T12:39:19.988Z,17.48
2022-10-31T12:41:54.485Z,17.55
2022-10-31T12:44:46.303Z,17.65
2022-10-31T12:47:42.342Z,17.65
2022-10-31T12:50:24.631Z,17.69
2022-10-31T12:53:03.280Z,17.79
2022-10-31T12:55:55.431Z,17.85
2022-10-31T12:58:29.107Z,17.86
2022-10-31T13:01:08.720Z,17.89
2022-10-31T13:03:44.575Z,17.87
2022-10-31T13:06:20.268Z,17.87
2022-10-31T13:08:51.763Z,17.90
2022-10-31T13:11:24.550Z,17.91
2022-10-31T13:14:01.176Z,17.92
2022-10-31T13:16:35.219Z,17.98
2022-10-31T13:19:09.983Z,18.07
2022-10-31T13:21:45.356Z,17.97
2022-10-31T13:24:18.594Z,17.89
2022-10-31T13:26:50.745Z,17.83
2022-10-31T13:29:29.835Z,17.83
2022-10-31T13:32:00.443Z,17.82
2022-10-31T13:34:32.461Z,17.92
2022-10-31T13:37:07.678Z,17.99
2022-10-31T13:39:50.255Z,18.05
2022-10-31T13:42:23.000Z,18.19
2022-10-31T13:44:52.133Z,18.31
2022-10-31T13:47:25.721Z,18.36
2022-10-31T13:49:53.663Z,18.40
2022-10-31T13:52:26.642Z,18.42
2022-10-31T13:54:57.841Z,18.45
2022-10-31T13:57:34.708Z,18.45
2022-10-31T14:00:08.217Z,18.43
2022-10-31T14:02:48.342Z,18.38
2022-10-31T14:05:27.175Z,18.36
2022-10-31T14:07:56.576Z,18.41
2022-10-31T14:10:30.053Z,18.35
2022-10-31T14:13:07.750Z,18.37
2022-10-31T14:15:39.426Z,18.34
2022-10-31T14:18:20.560Z,18.28
2022-10-31T14:20:48.449Z,18.20
2022-10-31T14:23:37.255Z,18.08
2022-10-31T14:26:23.976Z,18.01
2022-10-31T14:28:53.271Z,17.95
2022-10-31T14:31:37.133Z,17.84
2022-10-31T14:34:21.136Z,17.82
2022-10-31T14:37:01.228Z,17.66
2022-10-31T14:39:34.725Z,17.59
2022-10-31T14:42:19.599Z,17.49
2022-10-31T14:45:07.937Z,17.50
2022-10-31T14:47:47.519Z,17.46
2022-10-31T14:50:25.126Z,17.44
2022-10-31T14:52:56.875Z,17.47
2022-10-31T14:55:26.111Z,17.48
2022-10-31T14:57:57.674Z,17.47
2022-10-31T15:00:26.798Z,17.44
2022-10-31T15:03:06.205Z,17.37
2022-10-31T15:05:36.632Z,17.37
2022-10-31T15:08:04.655Z,17.28
2022-10-31T15:10:36.091Z,17.30
2022-10-31T15:13:11.281Z,17.33
2022-10-31T15:15:39.929Z,17.29
2022-10-31T15:18:09.202Z,17.27
2022-10-31T15:20:44.619Z,17.27
2022-10-31T15:23:17.171Z,17.28
2022-10-31T15:25:45.543Z,17.30
2022-10-31T15:28:17.359Z,17.25
2022-10-31T15:30:53.365Z,17.16
2022-10-31T15:33:25.239Z,17.16
2022-10-31T15:35:57.958Z,17.09
2022-10-31T15:38:26.179Z,17.04
2022-10-31T15:40:57.302Z,16.97
2022-10-31T15:43:25.279Z,16.90
2022-10-31T15:45:53.543Z,16.87
2022-10-31T15:48:25.975Z,16.77
2022-10-31T15:50:56.074Z,16.75
2022-10-31T15:53:29.252Z,16.73
2022-10-31T15:56:00.232Z,16.64
2022-10-31T15:58:29.281Z,16.56
2022-10-31T16:01:01.232Z,16.49
2022-10-31T16:03:31.986Z,16.38
2022-10-31T16:06:01.921Z,16.31
2022-10-31T16:08:38.235Z,16.30
2022-10-31T16:11:23.203Z,16.32
2022-10-31T16:13:56.694Z,16.30
2022-10-31T16:16:39.963Z,16.27
2022-10-31T16:19:18.426Z,16.18
2022-10-31T16:21:46.703Z,16.17
2022-10-31T16:24:22.132Z,16.14
2022-10-31T16:26:51.544Z,16.11
2022-10-31T16:29:34.120Z,16.02
2022-10-31T16:32:01.919Z,15.94
2022-10-31T16:34:31.092Z,15.87
2022-10-31T16:36:58.833Z,15.80
2022-10-31T16:39:26.592Z,15.82
2022-10-31T16:41:58.092Z,15.83
2022-10-31T16:44:27.636Z,15.77
2022-10-31T16:47:11.425Z,15.81
2022-10-31T16:49:40.610Z,15.83
2022-10-31T16:52:08.546Z,15.79
2022-10-31T16:54:36.352Z,15.76
2022-10-31T16:57:06.075Z,15.75
2022-10-31T16:59:35.285Z,15.75
2022-10-31T17:02:05.341Z,15.77
2022-10-31T17:04:33.300Z,15.78
2022-10-31T17:07:02.388Z,15.73
2022-10-31T17:09:30.216Z,15.70
2022-10-31T17:11:58.354Z,15.70
2022-10-31T17:14:26.273Z,15.71
2022-10-31T17:16:54.035Z,15.67
2022-10-31T17:19:24.582Z,15.66
2022-10-31T17:21:52.434Z,15.62
2022-10-31T17:24:21.576Z,15.56
2022-10-31T17:26:49.335Z,15.52
2022-10-31T17:29:18.197Z,15.49
2022-10-31T17:31:46.008Z,15.46
2022-10-31T17:34:13.792Z,15.45
2022-10-31T17:36:41.571Z,15.38
2022-10-31T17:39:10.622Z,15.30
2022-10-31T17:41:39.719Z,15.23
2022-10-31T17:44:07.524Z,15.15
2022-10-31T17:46:35.287Z,15.10
2022-10-31T17:49:04.953Z,15.07
2022-10-31T17:51:32.737Z,15.03
2022-10-31T17:54:00.454Z,14.99
2022-10-31T17:56:28.259Z,14.93
2022-10-31T17:58:58.246Z,14.83
2022-10-31T18:01:26.246Z,14.78
2022-10-31T18:03:54.036Z,14.78
2022-10-31T18:06:21.797Z,14.73
2022-10-31T18:08:49.524Z,14.65
2022-10-31T18:11:20.873Z,14.55
2022-10-31T18:13:48.785Z,14.54
2022-10-31T18:16:19.177Z,14.52
2022-10-31T18:18:51.294Z,14.47
2022-10-31T18:21:19.032Z,14.42
2022-10-31T18:23:47.745Z,14.40
2022-10-31T18:26:15.585Z,14.32
2022-10-31T18:28:43.475Z,14.35
2022-10-31T18:31:11.252Z,14.34
2022-10-31T18:33:42.431Z,14.34
2022-10-31T18:36:11.991Z,14.30
2022-10-31T18:38:40.830Z,14.23
2022-10-31T18:41:09.170Z,14.10
2022-10-31T18:43:36.903Z,14.08
2022-10-31T18:46:06.111Z,14.07
2022-10-31T18:48:34.502Z,14.00
2022-10-31T18:53:38.023Z,13.99
2022-10-31T18:56:08.188Z,13.95
2022-10-31T18:58:36.120Z,13.92
2022-10-31T19:01:07.601Z,13.95
2022-10-31T19:03:35.708Z,13.91
2022-10-31T19:06:05.322Z,13.88
2022-10-31T19:08:33.199Z,13.88
2022-10-31T19:11:05.514Z,13.89
2022-10-31T19:13:33.713Z,13.90
2022-10-31T19:16:06.339Z,13.90
2022-10-31T19:18:34.195Z,13.90
2022-10-31T19:21:07.634Z,13.89
2022-10-31T19:23:35.500Z,13.92
2022-10-31T19:26:03.605Z,13.94
2022-10-31T19:28:32.291Z,13.90
2022-10-31T19:31:00.549Z,13.84
2022-10-31T19:33:33.407Z,13.84
2022-10-31T19:36:08.201Z,13.84
2022-10-31T19:38:38.918Z,13.86
2022-10-31T19:41:10.300Z,13.82
2022-10-31T19:43:38.614Z,13.82
2022-10-31T19:46:09.058Z,13.82
2022-10-31T19:48:39.888Z,13.83
2022-10-31T19:51:09.817Z,13.87
2022-10-31T19:53:39.698Z,13.89
2022-10-31T19:56:12.433Z,13.91
2022-10-31T19:58:40.562Z,13.89
2022-10-31T20:01:09.725Z,13.89
2022-10-31T20:03:39.862Z,13.86
2022-10-31T20:06:08.539Z,13.85
2022-10-31T20:08:39.430Z,13.87
2022-10-31T20:11:08.836Z,13.90
2022-10-31T20:13:36.671Z,13.93
2022-10-31T20:16:06.706Z,13.90
2022-10-31T20:18:35.683Z,13.87
2022-10-31T20:21:05.218Z,13.90
2022-10-31T20:23:33.498Z,13.90
2022-10-31T20:26:01.965Z,13.89
2022-10-31T20:28:33.690Z,13.89
2022-10-31T20:31:02.568Z,13.92
2022-10-31T20:33:30.313Z,13.93
2022-10-31T20:35:58.068Z,13.93
2022-10-31T20:38:25.772Z,13.93
2022-10-31T20:40:53.507Z,13.92
2022-10-31T20:43:21.275Z,13.89
2022-10-31T20:45:50.383Z,13.87
2022-10-31T20:48:19.931Z,13.86
2022-10-31T20:50:47.675Z,13.88
2022-10-31T20:53:15.414Z,13.90
2022-10-31T20:55:43.152Z,13.91
2022-10-31T20:58:10.890Z,13.91
2022-10-31T21:00:38.643Z,13.92
2022-10-31T21:03:07.773Z,13.94
2022-10-31T21:05:35.535Z,13.94
2022-10-31T21:08:04.328Z,13.98
2022-10-31T21:10:32.081Z,13.96
2022-10-31T21:13:00.637Z,13.98
2022-10-31T21:15:28.670Z,14.00
2022-10-31T21:17:56.811Z,14.02
2022-10-31T21:20:25.942Z,14.03
2022-10-31T21:22:54.585Z,14.03
2022-10-31T21:25:22.470Z,14.03
2022-10-31T21:27:50.176Z,13.98
2022-10-31T21:30:18.063Z,13.90
2022-10-31T21:32:45.800Z,13.90
2022-10-31T21:35:13.589Z,13.90
2022-10-31T21:37:42.797Z,13.89
2022-10-31T21:40:11.455Z,13.88
2022-10-31T21:42:39.196Z,13.84
2022-10-31T21:45:07.564Z,13.82
2022-10-31T21:47:35.279Z,13.81
2022-10-31T21:50:03.023Z,13.78
2022-10-31T21:52:30.745Z,13.78
2022-10-31T21:54:58.883Z,13.79
2022-10-31T21:57:26.622Z,13.78
2022-10-31T21:59:54.395Z,13.75
2022-10-31T22:02:22.132Z,13.77
2022-10-31T22:04:51.374Z,13.74
2022-10-31T22:07:19.364Z,13.77
2022-10-31T22:09:47.392Z,13.79
2022-10-31T22:12:16.596Z,13.84
2022-10-31T22:14:44.339Z,13.86
2022-10-31T22:17:12.203Z,13.87
2022-10-31T22:19:39.952Z,13.90
2022-10-31T22:22:07.699Z,13.96
2022-10-31T22:24:35.423Z,13.99
2022-10-31T22:27:03.128Z,13.96
2022-10-31T22:29:32.195Z,13.95
2022-10-31T22:32:01.986Z,13.96
2022-10-31T22:34:30.004Z,14.00
2022-10-31T22:36:57.758Z,13.98
2022-10-31T22:39:25.513Z,13.97
2022-10-31T22:41:53.279Z,13.96
2022-10-31T22:44:20.996Z,13.94
2022-10-31T22:46:50.059Z,13.97
2022-10-31T22:49:17.762Z,14.03
2022-10-31T22:51:45.821Z,14.07
2022-10-31T22:54:15.606Z,14.13
2022-10-31T22:56:43.839Z,14.17
2022-10-31T22:59:13.575Z,14.26
2022-10-31T23:01:41.716Z,14.30
2022-10-31T23:06:40.009Z,14.48
2022-10-31T23:09:10.087Z,14.57
2022-10-31T23:11:39.856Z,14.57
2022-10-31T23:14:13.781Z,14.56
2022-10-31T23:16:47.259Z,14.57
2022-10-31T23:19:18.524Z,14.54
2022-10-31T23:21:59.358Z,14.53
2022-10-31T23:24:30.366Z,14.48
2022-10-31T23:27:10.025Z,14.44
2022-10-31T23:29:44.172Z,14.42
2022-10-31T23:32:15.854Z,14.33
2022-10-31T23:34:45.625Z,14.33
2022-10-31T23:37:14.053Z,14.35
2022-10-31T23:39:42.094Z,14.31
2022-10-31T23:42:10.258Z,14.29
2022-10-31T23:44:38.112Z,14.27
2022-10-31T23:47:06.443Z,14.20
2022-10-31T23:49:34.306Z,14.18
2022-10-31T23:52:03.582Z,14.15
2022-10-31T23:54:32.031Z,14.13
2022-10-31T23:57:00.232Z,14.11
2022-10-31T23:59:29.067Z,14.09
